sensor_id;sensor_type;location;lat;lon;timestamp;pressure;altitude;pressure_sealevel;temperature
12875;BMP180;6505;51.114;13.128;2023-02-19T00:01:51;99460.00;;;16.40
12875;BMP180;6505;51.114;13.128;2023-02-19T00:04:20;99458.00;;;16.40
12875;BMP180;6505;51.114;13.128;2023-02-19T00:06:49;99455.00;;;16.40
12875;BMP180;6505;51.114;13.128;2023-02-19T00:09:19;99461.00;;;16.40
12875;BMP180;6505;51.114;13.128;2023-02-19T00:11:48;99448.00;;;16.40
12875;BMP180;6505;51.114;13.128;2023-02-19T00:14:19;99452.00;;;16.40
12875;BMP180;6505;51.114;13.128;2023-02-19T00:16:47;99440.00;;;16.40
12875;BMP180;6505;51.114;13.128;2023-02-19T00:19:18;99442.00;;;16.30
12875;BMP180;6505;51.114;13.128;2023-02-19T00:21:47;99434.00;;;16.40
12875;BMP180;6505;51.114;13.128;2023-02-19T00:24:18;99433.00;;;16.40
12875;BMP180;6505;51.114;13.128;2023-02-19T00:26:47;99434.00;;;16.30
12875;BMP180;6505;51.114;13.128;2023-02-19T00:29:18;99425.00;;;16.30
12875;BMP180;6505;51.114;13.128;2023-02-19T00:31:47;99429.00;;;16.40
12875;BMP180;6505;51.114;13.128;2023-02-19T00:34:15;99426.00;;;16.40
12875;BMP180;6505;51.114;13.128;2023-02-19T00:36:43;99419.00;;;16.30
12875;BMP180;6505;51.114;13.128;2023-02-19T00:39:14;99413.00;;;16.30
12875;BMP180;6505;51.114;13.128;2023-02-19T00:41:44;99413.00;;;16.30
12875;BMP180;6505;51.114;13.128;2023-02-19T00:44:14;99408.00;;;16.30
12875;BMP180;6505;51.114;13.128;2023-02-19T00:46:45;99400.00;;;16.30
12875;BMP180;6505;51.114;13.128;2023-02-19T00:49:17;99391.00;;;16.30
12875;BMP180;6505;51.114;13.128;2023-02-19T00:51:46;99397.00;;;16.30
12875;BMP180;6505;51.114;13.128;2023-02-19T00:54:14;99391.00;;;16.30
12875;BMP180;6505;51.114;13.128;2023-02-19T00:56:43;99386.00;;;16.40
12875;BMP180;6505;51.114;13.128;2023-02-19T00:59:14;99369.00;;;16.30
12875;BMP180;6505;51.114;13.128;2023-02-19T01:01:43;99372.00;;;16.30
12875;BMP180;6505;51.114;13.128;2023-02-19T01:04:11;99368.00;;;16.40
12875;BMP180;6505;51.114;13.128;2023-02-19T01:06:39;99368.00;;;16.40
12875;BMP180;6505;51.114;13.128;2023-02-19T01:09:07;99369.00;;;16.40
12875;BMP180;6505;51.114;13.128;2023-02-19T01:11:35;99360.00;;;16.40
12875;BMP180;6505;51.114;13.128;2023-02-19T01:14:04;99359.00;;;16.40
12875;BMP180;6505;51.114;13.128;2023-02-19T01:16:33;99360.00;;;16.40
12875;BMP180;6505;51.114;13.128;2023-02-19T01:19:01;99355.00;;;16.40
12875;BMP180;6505;51.114;13.128;2023-02-19T01:21:30;99339.00;;;16.40
12875;BMP180;6505;51.114;13.128;2023-02-19T01:23:58;99334.00;;;16.40
12875;BMP180;6505;51.114;13.128;2023-02-19T01:26:30;99339.00;;;16.40
12875;BMP180;6505;51.114;13.128;2023-02-19T01:29:00;99335.00;;;16.40
12875;BMP180;6505;51.114;13.128;2023-02-19T01:31:29;99335.00;;;16.40
12875;BMP180;6505;51.114;13.128;2023-02-19T01:34:01;99333.00;;;16.30
12875;BMP180;6505;51.114;13.128;2023-02-19T01:36:32;99328.00;;;16.30
12875;BMP180;6505;51.114;13.128;2023-02-19T01:39:02;99327.00;;;16.40
12875;BMP180;6505;51.114;13.128;2023-02-19T01:41:34;99329.00;;;16.30
12875;BMP180;6505;51.114;13.128;2023-02-19T01:44:05;99330.00;;;16.30
12875;BMP180;6505;51.114;13.128;2023-02-19T01:46:37;99322.00;;;16.40
12875;BMP180;6505;51.114;13.128;2023-02-19T01:49:09;99328.00;;;16.30
12875;BMP180;6505;51.114;13.128;2023-02-19T01:51:42;99324.00;;;16.30
12875;BMP180;6505;51.114;13.128;2023-02-19T01:54:14;99328.00;;;16.30
12875;BMP180;6505;51.114;13.128;2023-02-19T01:56:46;99322.00;;;16.30
12875;BMP180;6505;51.114;13.128;2023-02-19T01:59:17;99314.00;;;16.30
12875;BMP180;6505;51.114;13.128;2023-02-19T02:01:45;99308.00;;;16.30
12875;BMP180;6505;51.114;13.128;2023-02-19T02:04:15;99306.00;;;16.30
12875;BMP180;6505;51.114;13.128;2023-02-19T02:06:49;99300.00;;;16.30
12875;BMP180;6505;51.114;13.128;2023-02-19T02:09:19;99291.00;;;16.30
12875;BMP180;6505;51.114;13.128;2023-02-19T02:12:06;99298.00;;;16.30
12875;BMP180;6505;51.114;13.128;2023-02-19T02:14:38;99295.00;;;16.30
12875;BMP180;6505;51.114;13.128;2023-02-19T02:17:17;99287.00;;;16.20
12875;BMP180;6505;51.114;13.128;2023-02-19T02:20:09;99287.00;;;16.20
12875;BMP180;6505;51.114;13.128;2023-02-19T02:22:47;99278.00;;;16.20
12875;BMP180;6505;51.114;13.128;2023-02-19T02:25:44;99282.00;;;16.20
12875;BMP180;6505;51.114;13.128;2023-02-19T02:28:44;99283.00;;;16.20
12875;BMP180;6505;51.114;13.128;2023-02-19T02:31:18;99263.00;;;16.20
12875;BMP180;6505;51.114;13.128;2023-02-19T02:33:58;99256.00;;;16.20
12875;BMP180;6505;51.114;13.128;2023-02-19T02:36:32;99252.00;;;16.20
12875;BMP180;6505;51.114;13.128;2023-02-19T02:39:06;99244.00;;;16.20
12875;BMP180;6505;51.114;13.128;2023-02-19T02:41:41;99241.00;;;16.20
12875;BMP180;6505;51.114;13.128;2023-02-19T02:44:09;99230.00;;;16.20
12875;BMP180;6505;51.114;13.128;2023-02-19T02:46:43;99233.00;;;16.20
12875;BMP180;6505;51.114;13.128;2023-02-19T02:49:19;99221.00;;;16.10
12875;BMP180;6505;51.114;13.128;2023-02-19T02:51:53;99222.00;;;16.20
12875;BMP180;6505;51.114;13.128;2023-02-19T02:54:31;99218.00;;;16.20
12875;BMP180;6505;51.114;13.128;2023-02-19T02:57:20;99220.00;;;16.20
12875;BMP180;6505;51.114;13.128;2023-02-19T02:59:52;99222.00;;;16.20
12875;BMP180;6505;51.114;13.128;2023-02-19T03:02:27;99210.00;;;16.10
12875;BMP180;6505;51.114;13.128;2023-02-19T03:05:02;99203.00;;;16.10
12875;BMP180;6505;51.114;13.128;2023-02-19T03:07:56;99212.00;;;16.10
12875;BMP180;6505;51.114;13.128;2023-02-19T03:10:32;99198.00;;;16.10
12875;BMP180;6505;51.114;13.128;2023-02-19T03:13:05;99199.00;;;16.10
12875;BMP180;6505;51.114;13.128;2023-02-19T03:15:58;99169.00;;;16.10
12875;BMP180;6505;51.114;13.128;2023-02-19T03:18:48;99191.00;;;16.10
12875;BMP180;6505;51.114;13.128;2023-02-19T03:21:39;99193.00;;;16.10
12875;BMP180;6505;51.114;13.128;2023-02-19T03:24:10;99181.00;;;16.10
12875;BMP180;6505;51.114;13.128;2023-02-19T03:27:01;99183.00;;;16.10
12875;BMP180;6505;51.114;13.128;2023-02-19T03:29:40;99159.00;;;16.10
12875;BMP180;6505;51.114;13.128;2023-02-19T03:32:14;99162.00;;;16.10
12875;BMP180;6505;51.114;13.128;2023-02-19T03:34:52;99161.00;;;16.00
12875;BMP180;6505;51.114;13.128;2023-02-19T03:37:29;99155.00;;;16.00
12875;BMP180;6505;51.114;13.128;2023-02-19T03:39:59;99163.00;;;16.10
12875;BMP180;6505;51.114;13.128;2023-02-19T03:42:37;99154.00;;;16.00
12875;BMP180;6505;51.114;13.128;2023-02-19T03:45:23;99148.00;;;16.00
12875;BMP180;6505;51.114;13.128;2023-02-19T03:48:23;99138.00;;;16.00
12875;BMP180;6505;51.114;13.128;2023-02-19T03:51:05;99152.00;;;16.00
12875;BMP180;6505;51.114;13.128;2023-02-19T03:53:48;99136.00;;;16.00
12875;BMP180;6505;51.114;13.128;2023-02-19T03:56:26;99144.00;;;16.00
12875;BMP180;6505;51.114;13.128;2023-02-19T03:59:02;99143.00;;;16.00
12875;BMP180;6505;51.114;13.128;2023-02-19T04:01:40;99131.00;;;16.00
12875;BMP180;6505;51.114;13.128;2023-02-19T04:04:17;99141.00;;;16.00
12875;BMP180;6505;51.114;13.128;2023-02-19T04:06:52;99133.00;;;16.00
12875;BMP180;6505;51.114;13.128;2023-02-19T04:09:24;99122.00;;;16.00
12875;BMP180;6505;51.114;13.128;2023-02-19T04:12:02;99108.00;;;16.00
12875;BMP180;6505;51.114;13.128;2023-02-19T04:14:35;99127.00;;;16.00
12875;BMP180;6505;51.114;13.128;2023-02-19T04:17:12;99132.00;;;16.00
12875;BMP180;6505;51.114;13.128;2023-02-19T04:19:43;99128.00;;;16.00
12875;BMP180;6505;51.114;13.128;2023-02-19T04:22:15;99109.00;;;16.00
12875;BMP180;6505;51.114;13.128;2023-02-19T04:24:48;99126.00;;;16.00
12875;BMP180;6505;51.114;13.128;2023-02-19T04:27:17;99127.00;;;16.00
12875;BMP180;6505;51.114;13.128;2023-02-19T04:29:46;99136.00;;;16.00
12875;BMP180;6505;51.114;13.128;2023-02-19T04:32:14;99122.00;;;16.00
12875;BMP180;6505;51.114;13.128;2023-02-19T04:34:41;99134.00;;;16.00
12875;BMP180;6505;51.114;13.128;2023-02-19T04:37:10;99128.00;;;16.00
12875;BMP180;6505;51.114;13.128;2023-02-19T04:39:39;99134.00;;;16.00
12875;BMP180;6505;51.114;13.128;2023-02-19T04:42:09;99134.00;;;16.00
12875;BMP180;6505;51.114;13.128;2023-02-19T04:44:37;99130.00;;;16.00
12875;BMP180;6505;51.114;13.128;2023-02-19T04:47:05;99140.00;;;16.00
12875;BMP180;6505;51.114;13.128;2023-02-19T04:49:33;99135.00;;;16.00
12875;BMP180;6505;51.114;13.128;2023-02-19T04:52:00;99126.00;;;16.00
12875;BMP180;6505;51.114;13.128;2023-02-19T04:54:28;99130.00;;;16.00
12875;BMP180;6505;51.114;13.128;2023-02-19T04:56:57;99133.00;;;16.00
12875;BMP180;6505;51.114;13.128;2023-02-19T04:59:25;99118.00;;;16.00
12875;BMP180;6505;51.114;13.128;2023-02-19T05:01:53;99118.00;;;16.00
12875;BMP180;6505;51.114;13.128;2023-02-19T05:04:24;99123.00;;;16.00
12875;BMP180;6505;51.114;13.128;2023-02-19T05:06:52;99124.00;;;16.00
12875;BMP180;6505;51.114;13.128;2023-02-19T05:09:20;99140.00;;;16.00
12875;BMP180;6505;51.114;13.128;2023-02-19T05:11:48;99144.00;;;16.00
12875;BMP180;6505;51.114;13.128;2023-02-19T05:14:17;99145.00;;;16.00
12875;BMP180;6505;51.114;13.128;2023-02-19T05:16:45;99151.00;;;16.00
12875;BMP180;6505;51.114;13.128;2023-02-19T05:19:13;99153.00;;;16.00
12875;BMP180;6505;51.114;13.128;2023-02-19T05:21:41;99158.00;;;16.00
12875;BMP180;6505;51.114;13.128;2023-02-19T05:24:09;99154.00;;;16.00
12875;BMP180;6505;51.114;13.128;2023-02-19T05:26:37;99157.00;;;16.00
12875;BMP180;6505;51.114;13.128;2023-02-19T05:29:04;99160.00;;;16.00
12875;BMP180;6505;51.114;13.128;2023-02-19T05:31:34;99167.00;;;16.00
12875;BMP180;6505;51.114;13.128;2023-02-19T05:34:02;99166.00;;;16.00
12875;BMP180;6505;51.114;13.128;2023-02-19T05:36:30;99172.00;;;15.90
12875;BMP180;6505;51.114;13.128;2023-02-19T05:38:58;99167.00;;;15.90
12875;BMP180;6505;51.114;13.128;2023-02-19T05:41:29;99159.00;;;15.90
12875;BMP180;6505;51.114;13.128;2023-02-19T05:43:57;99160.00;;;15.90
12875;BMP180;6505;51.114;13.128;2023-02-19T05:46:28;99166.00;;;15.90
12875;BMP180;6505;51.114;13.128;2023-02-19T05:48:57;99161.00;;;15.90
12875;BMP180;6505;51.114;13.128;2023-02-19T05:51:26;99171.00;;;15.90
12875;BMP180;6505;51.114;13.128;2023-02-19T05:53:55;99177.00;;;15.90
12875;BMP180;6505;51.114;13.128;2023-02-19T05:56:30;99184.00;;;15.90
12875;BMP180;6505;51.114;13.128;2023-02-19T05:58:59;99166.00;;;15.90
12875;BMP180;6505;51.114;13.128;2023-02-19T06:01:29;99184.00;;;15.90
12875;BMP180;6505;51.114;13.128;2023-02-19T06:03:59;99185.00;;;15.90
12875;BMP180;6505;51.114;13.128;2023-02-19T06:06:27;99196.00;;;15.90
12875;BMP180;6505;51.114;13.128;2023-02-19T06:08:56;99191.00;;;15.90
12875;BMP180;6505;51.114;13.128;2023-02-19T06:11:24;99186.00;;;15.90
12875;BMP180;6505;51.114;13.128;2023-02-19T06:13:52;99177.00;;;15.90
12875;BMP180;6505;51.114;13.128;2023-02-19T06:16:20;99195.00;;;15.90
12875;BMP180;6505;51.114;13.128;2023-02-19T06:18:49;99182.00;;;15.90
12875;BMP180;6505;51.114;13.128;2023-02-19T06:21:18;99191.00;;;15.90
12875;BMP180;6505;51.114;13.128;2023-02-19T06:23:46;99203.00;;;15.90
12875;BMP180;6505;51.114;13.128;2023-02-19T06:26:17;99197.00;;;15.90
12875;BMP180;6505;51.114;13.128;2023-02-19T06:28:47;99193.00;;;15.90
12875;BMP180;6505;51.114;13.128;2023-02-19T06:31:17;99192.00;;;15.90
12875;BMP180;6505;51.114;13.128;2023-02-19T06:33:46;99207.00;;;15.90
12875;BMP180;6505;51.114;13.128;2023-02-19T06:36:19;99210.00;;;15.80
12875;BMP180;6505;51.114;13.128;2023-02-19T06:38:48;99213.00;;;15.90
12875;BMP180;6505;51.114;13.128;2023-02-19T06:41:16;99211.00;;;15.90
12875;BMP180;6505;51.114;13.128;2023-02-19T06:43:44;99210.00;;;15.80
12875;BMP180;6505;51.114;13.128;2023-02-19T06:46:13;99206.00;;;15.90
12875;BMP180;6505;51.114;13.128;2023-02-19T06:48:43;99217.00;;;15.80
12875;BMP180;6505;51.114;13.128;2023-02-19T06:51:13;99215.00;;;15.80
12875;BMP180;6505;51.114;13.128;2023-02-19T06:53:43;99220.00;;;15.80
12875;BMP180;6505;51.114;13.128;2023-02-19T06:56:23;99224.00;;;15.80
12875;BMP180;6505;51.114;13.128;2023-02-19T06:58:53;99225.00;;;15.80
12875;BMP180;6505;51.114;13.128;2023-02-19T07:01:22;99235.00;;;15.80
12875;BMP180;6505;51.114;13.128;2023-02-19T07:03:51;99234.00;;;15.80
12875;BMP180;6505;51.114;13.128;2023-02-19T07:06:21;99235.00;;;15.80
12875;BMP180;6505;51.114;13.128;2023-02-19T07:08:52;99234.00;;;15.80
12875;BMP180;6505;51.114;13.128;2023-02-19T07:11:21;99237.00;;;15.80
12875;BMP180;6505;51.114;13.128;2023-02-19T07:13:53;99251.00;;;15.80
12875;BMP180;6505;51.114;13.128;2023-02-19T07:16:23;99248.00;;;15.80
12875;BMP180;6505;51.114;13.128;2023-02-19T07:18:52;99250.00;;;15.80
12875;BMP180;6505;51.114;13.128;2023-02-19T07:21:20;99261.00;;;15.80
12875;BMP180;6505;51.114;13.128;2023-02-19T07:23:47;99322.00;;;15.80
12875;BMP180;6505;51.114;13.128;2023-02-19T07:26:19;99341.00;;;15.80
12875;BMP180;6505;51.114;13.128;2023-02-19T07:28:49;99349.00;;;15.80
12875;BMP180;6505;51.114;13.128;2023-02-19T07:31:20;99360.00;;;15.80
12875;BMP180;6505;51.114;13.128;2023-02-19T07:33:50;99377.00;;;15.80
12875;BMP180;6505;51.114;13.128;2023-02-19T07:36:20;99391.00;;;15.70
12875;BMP180;6505;51.114;13.128;2023-02-19T07:38:52;99379.00;;;15.70
12875;BMP180;6505;51.114;13.128;2023-02-19T07:41:24;99385.00;;;15.70
12875;BMP180;6505;51.114;13.128;2023-02-19T07:43:55;99388.00;;;15.70
12875;BMP180;6505;51.114;13.128;2023-02-19T07:46:23;99399.00;;;15.60
12875;BMP180;6505;51.114;13.128;2023-02-19T07:48:51;99387.00;;;15.60
12875;BMP180;6505;51.114;13.128;2023-02-19T07:51:20;99398.00;;;15.50
12875;BMP180;6505;51.114;13.128;2023-02-19T07:53:49;99406.00;;;15.50
12875;BMP180;6505;51.114;13.128;2023-02-19T07:56:18;99413.00;;;15.50
12875;BMP180;6505;51.114;13.128;2023-02-19T07:58:48;99420.00;;;15.40
12875;BMP180;6505;51.114;13.128;2023-02-19T08:01:19;99416.00;;;15.40
12875;BMP180;6505;51.114;13.128;2023-02-19T08:04:11;99408.00;;;15.30
12875;BMP180;6505;51.114;13.128;2023-02-19T08:06:39;99428.00;;;15.30
12875;BMP180;6505;51.114;13.128;2023-02-19T08:09:07;99438.00;;;15.30
12875;BMP180;6505;51.114;13.128;2023-02-19T08:11:36;99442.00;;;15.20
12875;BMP180;6505;51.114;13.128;2023-02-19T08:14:25;99456.00;;;15.20
12875;BMP180;6505;51.114;13.128;2023-02-19T08:16:54;99454.00;;;15.10
12875;BMP180;6505;51.114;13.128;2023-02-19T08:19:22;99454.00;;;15.10
12875;BMP180;6505;51.114;13.128;2023-02-19T08:21:50;99471.00;;;15.10
12875;BMP180;6505;51.114;13.128;2023-02-19T08:24:19;99489.00;;;15.00
12875;BMP180;6505;51.114;13.128;2023-02-19T08:26:47;99501.00;;;15.00
12875;BMP180;6505;51.114;13.128;2023-02-19T08:29:15;99514.00;;;15.00
12875;BMP180;6505;51.114;13.128;2023-02-19T08:31:44;99530.00;;;14.90
12875;BMP180;6505;51.114;13.128;2023-02-19T08:34:12;99528.00;;;14.90
12875;BMP180;6505;51.114;13.128;2023-02-19T08:36:40;99535.00;;;14.90
12875;BMP180;6505;51.114;13.128;2023-02-19T08:39:09;99543.00;;;14.80
12875;BMP180;6505;51.114;13.128;2023-02-19T08:41:37;99548.00;;;14.80
12875;BMP180;6505;51.114;13.128;2023-02-19T08:44:05;99560.00;;;14.80
12875;BMP180;6505;51.114;13.128;2023-02-19T08:46:33;99571.00;;;14.70
12875;BMP180;6505;51.114;13.128;2023-02-19T08:49:02;99569.00;;;14.70
12875;BMP180;6505;51.114;13.128;2023-02-19T08:51:30;99586.00;;;14.70
12875;BMP180;6505;51.114;13.128;2023-02-19T08:54:02;99582.00;;;14.60
12875;BMP180;6505;51.114;13.128;2023-02-19T08:56:30;99600.00;;;14.60
12875;BMP180;6505;51.114;13.128;2023-02-19T08:58:59;99595.00;;;14.50
12875;BMP180;6505;51.114;13.128;2023-02-19T09:01:27;99619.00;;;14.50
12875;BMP180;6505;51.114;13.128;2023-02-19T09:03:55;99612.00;;;14.40
12875;BMP180;6505;51.114;13.128;2023-02-19T09:06:24;99611.00;;;14.40
12875;BMP180;6505;51.114;13.128;2023-02-19T09:08:52;99625.00;;;14.30
12875;BMP180;6505;51.114;13.128;2023-02-19T09:11:20;99636.00;;;14.30
12875;BMP180;6505;51.114;13.128;2023-02-19T09:13:48;99643.00;;;14.30
12875;BMP180;6505;51.114;13.128;2023-02-19T09:16:16;99654.00;;;14.20
12875;BMP180;6505;51.114;13.128;2023-02-19T09:18:44;99647.00;;;14.20
12875;BMP180;6505;51.114;13.128;2023-02-19T09:21:12;99637.00;;;14.20
12875;BMP180;6505;51.114;13.128;2023-02-19T09:23:41;99670.00;;;14.10
12875;BMP180;6505;51.114;13.128;2023-02-19T09:26:09;99679.00;;;14.10
12875;BMP180;6505;51.114;13.128;2023-02-19T09:28:39;99683.00;;;14.10
12875;BMP180;6505;51.114;13.128;2023-02-19T09:31:10;99684.00;;;14.10
12875;BMP180;6505;51.114;13.128;2023-02-19T09:33:41;99706.00;;;14.00
12875;BMP180;6505;51.114;13.128;2023-02-19T09:36:10;99701.00;;;14.00
12875;BMP180;6505;51.114;13.128;2023-02-19T09:38:38;99709.00;;;14.00
12875;BMP180;6505;51.114;13.128;2023-02-19T09:41:17;99707.00;;;14.00
12875;BMP180;6505;51.114;13.128;2023-02-19T09:43:47;99715.00;;;14.00
12875;BMP180;6505;51.114;13.128;2023-02-19T09:46:25;99705.00;;;13.90
12875;BMP180;6505;51.114;13.128;2023-02-19T09:49:02;99713.00;;;13.90
12875;BMP180;6505;51.114;13.128;2023-02-19T09:51:33;99722.00;;;13.90
12875;BMP180;6505;51.114;13.128;2023-02-19T09:54:05;99721.00;;;13.90
12875;BMP180;6505;51.114;13.128;2023-02-19T09:56:35;99726.00;;;13.90
12875;BMP180;6505;51.114;13.128;2023-02-19T09:59:05;99735.00;;;13.90
12875;BMP180;6505;51.114;13.128;2023-02-19T10:01:38;99746.00;;;13.90
12875;BMP180;6505;51.114;13.128;2023-02-19T10:04:09;99749.00;;;13.90
12875;BMP180;6505;51.114;13.128;2023-02-19T10:06:37;99755.00;;;13.90
12875;BMP180;6505;51.114;13.128;2023-02-19T10:09:20;99755.00;;;13.90
12875;BMP180;6505;51.114;13.128;2023-02-19T10:11:53;99768.00;;;13.90
12875;BMP180;6505;51.114;13.128;2023-02-19T10:14:29;99763.00;;;13.90
12875;BMP180;6505;51.114;13.128;2023-02-19T10:17:04;99766.00;;;13.90
12875;BMP180;6505;51.114;13.128;2023-02-19T10:19:33;99779.00;;;13.90
12875;BMP180;6505;51.114;13.128;2023-02-19T10:22:02;99767.00;;;13.90
12875;BMP180;6505;51.114;13.128;2023-02-19T10:24:31;99779.00;;;13.90
12875;BMP180;6505;51.114;13.128;2023-02-19T10:27:00;99792.00;;;13.90
12875;BMP180;6505;51.114;13.128;2023-02-19T10:29:28;99790.00;;;13.90
12875;BMP180;6505;51.114;13.128;2023-02-19T10:32:14;99793.00;;;13.80
12875;BMP180;6505;51.114;13.128;2023-02-19T10:34:44;99803.00;;;13.90
12875;BMP180;6505;51.114;13.128;2023-02-19T10:37:15;99804.00;;;13.80
12875;BMP180;6505;51.114;13.128;2023-02-19T10:39:46;99807.00;;;13.80
12875;BMP180;6505;51.114;13.128;2023-02-19T10:42:20;99804.00;;;13.80
12875;BMP180;6505;51.114;13.128;2023-02-19T10:44:53;99811.00;;;13.80
12875;BMP180;6505;51.114;13.128;2023-02-19T10:47:26;99820.00;;;13.90
12875;BMP180;6505;51.114;13.128;2023-02-19T10:49:58;99831.00;;;13.80
12875;BMP180;6505;51.114;13.128;2023-02-19T10:52:33;99836.00;;;13.80
12875;BMP180;6505;51.114;13.128;2023-02-19T10:55:19;99829.00;;;13.80
12875;BMP180;6505;51.114;13.128;2023-02-19T10:57:52;99827.00;;;13.90
12875;BMP180;6505;51.114;13.128;2023-02-19T11:00:24;99826.00;;;13.80
12875;BMP180;6505;51.114;13.128;2023-02-19T11:03:13;99845.00;;;13.80
12875;BMP180;6505;51.114;13.128;2023-02-19T11:05:56;99845.00;;;13.80
12875;BMP180;6505;51.114;13.128;2023-02-19T11:08:26;99851.00;;;13.90
12875;BMP180;6505;51.114;13.128;2023-02-19T11:10:54;99849.00;;;13.90
12875;BMP180;6505;51.114;13.128;2023-02-19T11:13:30;99864.00;;;13.80
12875;BMP180;6505;51.114;13.128;2023-02-19T11:16:04;99857.00;;;13.90
12875;BMP180;6505;51.114;13.128;2023-02-19T11:18:32;99853.00;;;13.90
12875;BMP180;6505;51.114;13.128;2023-02-19T11:21:04;99854.00;;;13.90
12875;BMP180;6505;51.114;13.128;2023-02-19T11:23:37;99874.00;;;13.90
12875;BMP180;6505;51.114;13.128;2023-02-19T11:26:18;99869.00;;;13.90
12875;BMP180;6505;51.114;13.128;2023-02-19T11:28:57;99882.00;;;13.80
12875;BMP180;6505;51.114;13.128;2023-02-19T11:31:28;99870.00;;;13.90
12875;BMP180;6505;51.114;13.128;2023-02-19T11:33:59;99881.00;;;13.90
12875;BMP180;6505;51.114;13.128;2023-02-19T11:36:30;99881.00;;;13.90
12875;BMP180;6505;51.114;13.128;2023-02-19T11:39:27;99876.00;;;13.80
12875;BMP180;6505;51.114;13.128;2023-02-19T11:42:36;99874.00;;;13.80
12875;BMP180;6505;51.114;13.128;2023-02-19T11:45:23;99887.00;;;13.80
12875;BMP180;6505;51.114;13.128;2023-02-19T11:48:15;99887.00;;;13.80
12875;BMP180;6505;51.114;13.128;2023-02-19T11:51:00;99887.00;;;13.80
12875;BMP180;6505;51.114;13.128;2023-02-19T11:53:33;99891.00;;;13.90
12875;BMP180;6505;51.114;13.128;2023-02-19T11:56:14;99891.00;;;13.80
12875;BMP180;6505;51.114;13.128;2023-02-19T11:58:57;99891.00;;;13.80
12875;BMP180;6505;51.114;13.128;2023-02-19T12:02:13;99898.00;;;13.80
12875;BMP180;6505;51.114;13.128;2023-02-19T12:05:40;99911.00;;;13.80
12875;BMP180;6505;51.114;13.128;2023-02-19T12:09:06;99916.00;;;13.70
12875;BMP180;6505;51.114;13.128;2023-02-19T12:11:53;99916.00;;;13.80
12875;BMP180;6505;51.114;13.128;2023-02-19T12:15:23;99910.00;;;13.70
12875;BMP180;6505;51.114;13.128;2023-02-19T12:18:24;99915.00;;;13.70
12875;BMP180;6505;51.114;13.128;2023-02-19T12:21:16;99916.00;;;13.70
12875;BMP180;6505;51.114;13.128;2023-02-19T12:24:07;99917.00;;;13.70
12875;BMP180;6505;51.114;13.128;2023-02-19T12:26:58;99913.00;;;13.70
12875;BMP180;6505;51.114;13.128;2023-02-19T12:29:52;99909.00;;;13.70
12875;BMP180;6505;51.114;13.128;2023-02-19T12:32:55;99917.00;;;13.80
12875;BMP180;6505;51.114;13.128;2023-02-19T12:35:45;99929.00;;;13.80
12875;BMP180;6505;51.114;13.128;2023-02-19T12:38:21;99923.00;;;13.80
12875;BMP180;6505;51.114;13.128;2023-02-19T12:41:15;99925.00;;;13.80
12875;BMP180;6505;51.114;13.128;2023-02-19T12:43:52;99921.00;;;13.80
12875;BMP180;6505;51.114;13.128;2023-02-19T12:46:28;99919.00;;;13.80
12875;BMP180;6505;51.114;13.128;2023-02-19T12:49:05;99935.00;;;13.80
12875;BMP180;6505;51.114;13.128;2023-02-19T12:51:43;99930.00;;;13.80
12875;BMP180;6505;51.114;13.128;2023-02-19T12:54:19;99940.00;;;13.80
12875;BMP180;6505;51.114;13.128;2023-02-19T12:56:54;99938.00;;;13.80
12875;BMP180;6505;51.114;13.128;2023-02-19T12:59:28;99942.00;;;13.80
12875;BMP180;6505;51.114;13.128;2023-02-19T13:02:05;99943.00;;;13.80
12875;BMP180;6505;51.114;13.128;2023-02-19T13:04:46;99953.00;;;13.80
12875;BMP180;6505;51.114;13.128;2023-02-19T13:07:21;99964.00;;;13.80
12875;BMP180;6505;51.114;13.128;2023-02-19T13:09:55;99962.00;;;13.80
12875;BMP180;6505;51.114;13.128;2023-02-19T13:12:28;99953.00;;;13.80
12875;BMP180;6505;51.114;13.128;2023-02-19T13:15:00;99968.00;;;13.90
12875;BMP180;6505;51.114;13.128;2023-02-19T13:17:37;99962.00;;;13.90
12875;BMP180;6505;51.114;13.128;2023-02-19T13:20:23;99966.00;;;13.90
12875;BMP180;6505;51.114;13.128;2023-02-19T13:23:05;99962.00;;;13.80
12875;BMP180;6505;51.114;13.128;2023-02-19T13:26:10;99971.00;;;13.80
12875;BMP180;6505;51.114;13.128;2023-02-19T13:29:00;99978.00;;;13.80
12875;BMP180;6505;51.114;13.128;2023-02-19T13:31:48;99980.00;;;13.80
12875;BMP180;6505;51.114;13.128;2023-02-19T13:34:43;99983.00;;;13.80
12875;BMP180;6505;51.114;13.128;2023-02-19T13:37:15;99988.00;;;13.80
12875;BMP180;6505;51.114;13.128;2023-02-19T13:39:50;99983.00;;;13.80
12875;BMP180;6505;51.114;13.128;2023-02-19T13:42:25;99974.00;;;13.80
12875;BMP180;6505;51.114;13.128;2023-02-19T13:44:54;99968.00;;;13.80
12875;BMP180;6505;51.114;13.128;2023-02-19T13:47:49;99963.00;;;13.80
12875;BMP180;6505;51.114;13.128;2023-02-19T13:50:28;99964.00;;;13.80
12875;BMP180;6505;51.114;13.128;2023-02-19T13:52:57;99969.00;;;13.80
12875;BMP180;6505;51.114;13.128;2023-02-19T13:55:49;99975.00;;;13.70
12875;BMP180;6505;51.114;13.128;2023-02-19T14:02:12;99987.00;;;13.70
12875;BMP180;6505;51.114;13.128;2023-02-19T14:04:48;99972.00;;;13.70
12875;BMP180;6505;51.114;13.128;2023-02-19T14:07:53;99991.00;;;13.70
12875;BMP180;6505;51.114;13.128;2023-02-19T14:10:57;100005.00;;;13.70
12875;BMP180;6505;51.114;13.128;2023-02-19T14:13:57;99996.00;;;13.70
12875;BMP180;6505;51.114;13.128;2023-02-19T14:16:50;100004.00;;;13.70
12875;BMP180;6505;51.114;13.128;2023-02-19T14:19:51;99997.00;;;13.70
12875;BMP180;6505;51.114;13.128;2023-02-19T14:23:00;99979.00;;;13.70
12875;BMP180;6505;51.114;13.128;2023-02-19T14:25:46;100000.00;;;13.70
12875;BMP180;6505;51.114;13.128;2023-02-19T14:28:38;100000.00;;;13.70
12875;BMP180;6505;51.114;13.128;2023-02-19T14:31:25;99998.00;;;13.70
12875;BMP180;6505;51.114;13.128;2023-02-19T14:33:57;100010.00;;;13.80
12875;BMP180;6505;51.114;13.128;2023-02-19T14:36:34;100009.00;;;13.70
12875;BMP180;6505;51.114;13.128;2023-02-19T14:39:09;100009.00;;;13.80
12875;BMP180;6505;51.114;13.128;2023-02-19T14:41:42;100011.00;;;13.80
12875;BMP180;6505;51.114;13.128;2023-02-19T14:44:18;100018.00;;;13.80
12875;BMP180;6505;51.114;13.128;2023-02-19T14:46:55;100012.00;;;13.80
12875;BMP180;6505;51.114;13.128;2023-02-19T14:49:30;100020.00;;;13.80
12875;BMP180;6505;51.114;13.128;2023-02-19T14:52:05;100024.00;;;13.80
12875;BMP180;6505;51.114;13.128;2023-02-19T14:54:43;100020.00;;;13.80
12875;BMP180;6505;51.114;13.128;2023-02-19T14:57:18;100026.00;;;13.80